Time;durP1;ratioP1;P1;durP2;ratioP2;P2;SDS_P1;SDS_P2;PMS_P1;PMS_P2;Temp;Humidity;BMP_temperature;BMP_pressure;BME280_temperature;BME280_humidity;BME280_pressure;Samples;Min_cycle;Max_cycle;Signal;HPM_P1;HPM_P2
2023/04/01 00:01:45;;;;;;;;;;;;;;;7.12;100.00;99045.41;5054061;28;945;-55
2023/04/01 00:04:11;;;;;;;;;;;;;;;7.11;100.00;99046.63;5054071;28;1945;-55
2023/04/01 00:06:38;;;;;;;;;;;;;;;7.26;100.00;99035.59;5053968;28;978;-52
2023/04/01 00:09:04;;;;;;;;;;;;;;;7.27;100.00;99039.88;5054052;28;1004;-53
2023/04/01 00:11:32;;;;;;;;;;;;;;;7.25;100.00;99031.25;5034277;28;798;-53
2023/04/01 00:13:58;;;;;;;;;;;;;;;7.20;100.00;99028.94;5033943;28;846;-54
2023/04/01 00:16:25;;;;;;;;;;;;;;;7.16;100.00;99023.44;5034281;28;790;-55
2023/04/01 00:18:52;;;;;;;;;;;;;;;7.11;100.00;99024.63;5033816;28;806;-54
2023/04/01 00:21:19;;;;;;;;;;;;;;;7.07;100.00;99037.59;5033793;28;870;-52
2023/04/01 00:23:46;;;;;;;;;;;;;;;7.12;100.00;99031.69;5033901;28;2031;-53
2023/04/01 00:26:14;;;;;;;;;;;;;;;7.03;100.00;99025.84;5033618;28;846;-55
2023/04/01 00:28:41;;;;;;;;;;;;;;;6.88;100.00;99024.31;5033939;28;866;-55
2023/04/01 00:31:09;;;;;;;;;;;;;;;6.81;100.00;99032.56;5033669;28;843;-52
2023/04/01 00:33:35;;;;;;;;;;;;;;;6.79;100.00;99037.69;5033083;28;933;-55
2023/04/01 00:36:09;;;;;;;;;;;;;;;6.87;100.00;99025.47;5033750;28;882;-54
2023/04/01 00:38:37;;;;;;;;;;;;;;;6.91;100.00;99016.06;5033478;28;933;-53
2023/04/01 00:41:04;;;;;;;;;;;;;;;6.98;100.00;99011.72;5033458;28;881;-55
2023/04/01 00:43:31;;;;;;;;;;;;;;;7.00;100.00;99007.41;5033394;28;1960;-55
2023/04/01 00:45:58;;;;;;;;;;;;;;;7.04;100.00;99010.94;5033248;28;862;-56
2023/04/01 00:48:30;;;;;;;;;;;;;;;7.05;100.00;99004.25;5033406;28;819;-56
2023/04/01 00:50:57;;;;;;;;;;;;;;;7.02;100.00;99007.78;5033424;28;826;-54
2023/04/01 00:53:24;;;;;;;;;;;;;;;7.18;100.00;99010.06;5033202;28;807;-55
2023/04/01 00:55:54;;;;;;;;;;;;;;;7.25;100.00;98998.25;5048509;28;949;-55
2023/04/01 00:58:23;;;;;;;;;;;;;;;7.21;100.00;99009.28;5033062;28;838;-55
2023/04/01 01:00:50;;;;;;;;;;;;;;;7.10;100.00;98992.81;5033194;28;802;-55
2023/04/01 01:03:19;;;;;;;;;;;;;;;6.98;100.00;98992.47;5033011;28;1886;-54
2023/04/01 01:05:48;;;;;;;;;;;;;;;6.96;100.00;98984.66;5033004;28;865;-55
2023/04/01 01:08:39;;;;;;;;;;;;;;;6.81;100.00;98989.41;5033192;28;983;-53
2023/04/01 01:11:08;;;;;;;;;;;;;;;6.59;100.00;98977.66;5065081;28;1497;-54
2023/04/01 01:13:40;;;;;;;;;;;;;;;6.37;100.00;98971.44;5052822;28;790;-55
2023/04/01 01:16:12;;;;;;;;;;;;;;;6.22;100.00;98981.66;5052795;28;880;-52
2023/04/01 01:18:42;;;;;;;;;;;;;;;6.27;100.00;98966.75;5052628;28;854;-53
2023/04/01 01:21:21;;;;;;;;;;;;;;;6.38;100.00;98958.50;5052604;28;842;-56
2023/04/01 01:24:02;;;;;;;;;;;;;;;6.49;100.00;98967.53;5052428;28;1914;-55
2023/04/01 01:26:40;;;;;;;;;;;;;;;6.39;100.00;98971.06;5052480;28;874;-54
2023/04/01 01:29:17;;;;;;;;;;;;;;;6.41;100.00;98976.94;5052458;28;893;-52
2023/04/01 01:31:43;;;;;;;;;;;;;;;6.32;100.00;98980.09;5052454;28;814;-55
2023/04/01 01:34:32;;;;;;;;;;;;;;;6.25;100.00;98977.34;5051043;28;1165;-52
2023/04/01 01:37:01;;;;;;;;;;;;;;;6.17;100.00;98979.31;5052737;28;865;-53
2023/04/01 01:39:30;;;;;;;;;;;;;;;6.26;100.00;98968.72;5052560;28;917;-55
2023/04/01 01:42:01;;;;;;;;;;;;;;;6.23;100.00;98977.75;5052176;28;850;-51
2023/04/01 01:44:29;;;;;;;;;;;;;;;6.05;100.00;98980.47;5051245;28;2028;-50
2023/04/01 01:46:56;;;;;;;;;;;;;;;5.93;100.00;98970.66;5052498;28;790;-54
2023/04/01 01:49:24;;;;;;;;;;;;;;;5.87;100.00;98964.00;5052092;28;806;-52
2023/04/01 01:51:51;;;;;;;;;;;;;;;5.82;100.00;98963.59;5052022;28;1184;-54
2023/04/01 01:54:17;;;;;;;;;;;;;;;5.88;100.00;98971.03;5051963;28;870;-55
2023/04/01 01:56:46;;;;;;;;;;;;;;;5.96;100.00;98960.88;5051967;28;880;-55
2023/04/01 01:59:15;;;;;;;;;;;;;;;6.00;100.00;98967.16;5052117;28;986;-55
2023/04/01 02:01:44;;;;;;;;;;;;;;;6.00;100.00;98961.69;5051839;28;930;-51
2023/04/01 02:04:13;;;;;;;;;;;;;;;6.01;100.00;98955.00;5051932;28;1902;-53
2023/04/01 02:06:42;;;;;;;;;;;;;;;6.12;100.00;98952.25;5051819;28;857;-54
2023/04/01 02:09:10;;;;;;;;;;;;;;;6.10;100.00;98946.38;5051871;28;1096;-54
2023/04/01 02:11:48;;;;;;;;;;;;;;;5.97;100.00;98948.72;5051641;28;930;-54
2023/04/01 02:14:17;;;;;;;;;;;;;;;5.86;100.00;98945.19;5051671;28;866;-55
2023/04/01 02:16:46;;;;;;;;;;;;;;;5.80;100.00;98939.28;5051555;28;862;-54
2023/04/01 02:19:14;;;;;;;;;;;;;;;5.85;100.00;98944.41;5051667;28;806;-54
2023/04/01 02:21:43;;;;;;;;;;;;;;;5.98;100.00;98946.78;5051478;28;870;-52
2023/04/01 02:24:12;;;;;;;;;;;;;;;6.16;100.00;98942.06;5051404;28;1971;-54
2023/04/01 02:26:39;;;;;;;;;;;;;;;6.34;100.00;98939.31;5051662;28;879;-54
2023/04/01 02:29:08;;;;;;;;;;;;;;;6.42;100.00;98937.31;5051590;28;802;-53
2023/04/01 02:31:34;;;;;;;;;;;;;;;6.38;100.00;98933.78;5051344;28;843;-54
2023/04/01 02:34:02;;;;;;;;;;;;;;;6.30;100.00;98925.59;5051384;28;941;-55
2023/04/01 02:36:29;;;;;;;;;;;;;;;6.23;100.00;98938.53;5051549;28;803;-54
2023/04/01 02:39:01;;;;;;;;;;;;;;;6.12;100.00;98933.84;5051528;28;850;-54
2023/04/01 02:41:28;;;;;;;;;;;;;;;5.97;100.00;98936.97;5051392;28;946;-55
2023/04/01 02:43:57;;;;;;;;;;;;;;;5.76;100.00;98938.53;5051278;28;1886;-54
2023/04/01 02:46:23;;;;;;;;;;;;;;;5.69;100.00;98933.03;5051307;28;898;-53
2023/04/01 02:48:50;;;;;;;;;;;;;;;5.78;100.00;98935.38;5051329;28;861;-54
2023/04/01 02:51:16;;;;;;;;;;;;;;;6.02;100.00;98934.63;5049970;28;1165;-52
2023/04/01 02:53:43;;;;;;;;;;;;;;;6.16;100.00;98928.34;5051187;28;826;-53
2023/04/01 02:56:09;;;;;;;;;;;;;;;6.25;100.00;98923.25;5052279;28;1622;-52
2023/04/01 02:58:36;;;;;;;;;;;;;;;6.27;100.00;98923.66;5055321;28;900;-51
2023/04/01 03:01:02;;;;;;;;;;;;;;;6.23;100.00;98917.38;5055320;28;841;-54
2023/04/01 03:03:29;;;;;;;;;;;;;;;6.23;100.00;98911.09;5055172;28;1944;-54
2023/04/01 03:05:58;;;;;;;;;;;;;;;6.21;100.00;98924.41;5055036;28;969;-52
2023/04/01 03:08:25;;;;;;;;;;;;;;;6.20;100.00;98922.84;5055253;28;918;-52
2023/04/01 03:10:51;;;;;;;;;;;;;;;6.16;100.00;98924.81;5055084;28;1258;-51
2023/04/01 03:13:18;;;;;;;;;;;;;;;6.12;100.00;98933.03;5055022;28;864;-50
2023/04/01 03:15:45;;;;;;;;;;;;;;;6.09;100.00;98926.38;5055257;28;879;-52
2023/04/01 03:18:11;;;;;;;;;;;;;;;6.14;100.00;98916.97;5054955;28;865;-55
2023/04/01 03:20:38;;;;;;;;;;;;;;;6.16;100.00;98917.38;5055005;28;830;-53
2023/04/01 03:23:04;;;;;;;;;;;;;;;6.14;100.00;98914.22;5055097;28;1967;-56
2023/04/01 03:25:31;;;;;;;;;;;;;;;6.06;100.00;98912.66;5054922;28;1048;-54
2023/04/01 03:27:59;;;;;;;;;;;;;;;6.00;100.00;98917.78;5054825;28;839;-55
2023/04/01 03:30:25;;;;;;;;;;;;;;;5.98;100.00;98919.34;5054792;28;839;-52
2023/04/01 03:32:52;;;;;;;;;;;;;;;5.93;100.00;98917.75;5054708;28;930;-55
2023/04/01 03:35:19;;;;;;;;;;;;;;;5.93;100.00;98910.31;5054854;28;885;-55
2023/04/01 03:37:45;;;;;;;;;;;;;;;5.88;100.00;98905.22;5054780;28;823;-55
2023/04/01 03:40:13;;;;;;;;;;;;;;;5.80;100.00;98902.88;5054740;28;803;-55
2023/04/01 03:42:40;;;;;;;;;;;;;;;5.77;100.00;98898.19;5054746;28;1890;-55
2023/04/01 03:45:07;;;;;;;;;;;;;;;5.76;100.00;98894.66;5054563;28;887;-56
2023/04/01 03:47:35;;;;;;;;;;;;;;;5.83;100.00;98900.13;5054445;28;968;-54
2023/04/01 03:50:01;;;;;;;;;;;;;;;5.88;100.00;98891.50;5054503;28;818;-55
2023/04/01 03:52:28;;;;;;;;;;;;;;;5.92;100.00;98894.25;5054298;28;964;-55
2023/04/01 03:54:55;;;;;;;;;;;;;;;6.03;100.00;98897.78;5054520;28;886;-56
2023/04/01 03:57:21;;;;;;;;;;;;;;;6.14;100.00;98895.03;5054316;28;878;-56
2023/04/01 03:59:48;;;;;;;;;;;;;;;6.33;100.00;98902.06;5054519;28;811;-55
2023/04/01 04:02:14;;;;;;;;;;;;;;;6.50;100.00;98901.22;5054333;28;909;-56
2023/04/01 04:04:42;;;;;;;;;;;;;;;6.63;100.00;98911.78;5054406;28;1969;-56
2023/04/01 04:07:08;;;;;;;;;;;;;;;6.68;100.00;98906.66;5053359;28;859;-56
2023/04/01 04:09:35;;;;;;;;;;;;;;;6.84;100.00;98910.91;5054435;28;1289;-55
2023/04/01 04:12:02;;;;;;;;;;;;;;;6.94;100.00;98907.34;5054010;28;861;-56
2023/04/01 04:14:28;;;;;;;;;;;;;;;7.07;100.00;98905.69;5053034;28;1552;-56
2023/04/01 04:16:55;;;;;;;;;;;;;;;7.22;100.00;98897.38;5053833;28;834;-56
2023/04/01 04:19:21;;;;;;;;;;;;;;;7.35;100.00;98901.22;5053839;28;905;-56
2023/04/01 04:21:48;;;;;;;;;;;;;;;7.45;100.00;98896.84;5053608;28;831;-56
2023/04/01 04:24:15;;;;;;;;;;;;;;;7.56;100.00;98894.81;5053588;28;1934;-56
2023/04/01 04:26:41;;;;;;;;;;;;;;;7.64;100.00;98892.75;5052305;28;1172;-54
2023/04/01 04:29:07;;;;;;;;;;;;;;;7.80;100.00;98887.53;5053924;28;831;-54
2023/04/01 04:31:33;;;;;;;;;;;;;;;7.97;100.00;98888.56;5053679;28;913;-56
2023/04/01 04:34:00;;;;;;;;;;;;;;;8.17;100.00;98886.00;5053457;28;885;-55
2023/04/01 04:36:27;;;;;;;;;;;;;;;8.38;100.00;98885.00;5053477;28;881;-56
2023/04/01 04:39:02;;;;;;;;;;;;;;;8.50;100.00;98875.50;5053434;28;806;-55
2023/04/01 04:41:29;;;;;;;;;;;;;;;8.62;100.00;98890.69;5053312;28;919;-56
2023/04/01 04:43:58;;;;;;;;;;;;;;;8.70;100.00;98892.94;5068756;28;1948;-56
2023/04/01 04:46:32;;;;;;;;;;;;;;;8.79;100.00;98886.97;5053211;28;1394;-55
2023/04/01 04:48:59;;;;;;;;;;;;;;;8.74;100.00;98882.66;5053211;28;834;-57
2023/04/01 04:51:26;;;;;;;;;;;;;;;8.67;100.00;98881.97;5053130;28;864;-56
2023/04/01 04:53:52;;;;;;;;;;;;;;;8.63;100.00;98872.97;5053240;28;833;-56
2023/04/01 04:56:20;;;;;;;;;;;;;;;8.61;100.00;98876.13;5053156;28;810;-54
2023/04/01 04:58:46;;;;;;;;;;;;;;;8.73;100.00;98872.06;5053146;28;861;-55
2023/04/01 05:01:14;;;;;;;;;;;;;;;8.86;100.00;98870.31;5053052;28;862;-56
2023/04/01 05:03:40;;;;;;;;;;;;;;;9.02;100.00;98866.19;5052926;28;1943;-55
2023/04/01 05:06:08;;;;;;;;;;;;;;;9.19;100.00;98867.91;5052827;28;854;-55
2023/04/01 05:08:35;;;;;;;;;;;;;;;9.45;100.00;98863.56;5053277;28;912;-56
2023/04/01 05:11:02;;;;;;;;;;;;;;;9.72;100.00;98862.78;5052508;28;1229;-56
2023/04/01 05:13:28;;;;;;;;;;;;;;;9.96;100.00;98869.06;5052798;28;864;-55
2023/04/01 05:15:55;;;;;;;;;;;;;;;10.21;100.00;98847.31;5052775;28;822;-55
2023/04/01 05:18:22;;;;;;;;;;;;;;;10.49;100.00;98850.75;5052823;28;921;-55
2023/04/01 05:20:55;;;;;;;;;;;;;;;10.66;100.00;98856.34;5052523;28;914;-55
2023/04/01 05:23:22;;;;;;;;;;;;;;;10.78;100.00;98852.94;5052537;28;1918;-55
2023/04/01 05:25:50;;;;;;;;;;;;;;;10.98;100.00;98850.16;5052517;28;842;-56
2023/04/01 05:28:22;;;;;;;;;;;;;;;11.28;100.00;98840.78;5052684;28;922;-57
2023/04/01 05:30:49;;;;;;;;;;;;;;;11.89;100.00;98839.34;5052746;28;851;-55
2023/04/01 05:33:15;;;;;;;;;;;;;;;12.53;100.00;98834.06;5052574;28;845;-57
2023/04/01 05:35:41;;;;;;;;;;;;;;;12.84;100.00;98828.81;5051624;28;807;-55
2023/04/01 05:38:08;;;;;;;;;;;;;;;13.01;100.00;98823.16;5052523;28;826;-57
2023/04/01 05:40:35;;;;;;;;;;;;;;;13.74;100.00;98831.59;5052351;28;890;-56
2023/04/01 05:43:03;;;;;;;;;;;;;;;14.40;100.00;98828.91;5052658;28;1935;-56
2023/04/01 05:45:30;;;;;;;;;;;;;;;14.49;100.00;98825.41;5067601;28;906;-57
2023/04/01 05:47:57;;;;;;;;;;;;;;;14.31;100.00;98820.47;5068140;28;791;-54
2023/04/01 06:02:34;;;;;;;;;;;;;;;12.72;100.00;98824.00;5052185;28;852;-57
2023/04/01 06:05:30;;;;;;;;;;;;;;;12.68;100.00;98822.56;5051789;28;1953;-55
2023/04/01 06:08:00;;;;;;;;;;;;;;;12.76;100.00;98830.22;5043387;28;1224;-58
2023/04/01 06:10:36;;;;;;;;;;;;;;;12.94;100.00;98834.47;5051639;28;1284;-57
2023/04/01 06:13:17;;;;;;;;;;;;;;;12.96;100.00;98829.25;5051717;28;858;-57
2023/04/01 06:15:54;;;;;;;;;;;;;;;12.98;100.00;98824.03;5051609;28;902;-57
2023/04/01 06:18:20;;;;;;;;;;;;;;;13.16;100.00;98826.25;5051514;28;926;-57
2023/04/01 06:21:16;;;;;;;;;;;;;;;13.37;100.00;98833.19;5051657;28;897;-56
2023/04/01 06:24:02;;;;;;;;;;;;;;;13.75;100.00;98826.81;5037399;28;1913;-57
2023/04/01 06:26:29;;;;;;;;;;;;;;;13.88;100.00;98830.31;5051618;28;838;-56
2023/04/01 06:28:55;;;;;;;;;;;;;;;13.90;100.00;98822.31;5051509;28;945;-57
2023/04/01 06:31:30;;;;;;;;;;;;;;;13.62;100.00;98818.50;5049898;28;1612;-57
2023/04/01 06:33:57;;;;;;;;;;;;;;;13.31;100.00;98827.41;5051502;28;914;-57
2023/04/01 06:36:58;;;;;;;;;;;;;;;13.31;100.00;98826.63;5051403;28;926;-56
2023/04/01 06:39:31;;;;;;;;;;;;;;;13.93;100.00;98821.41;5009732;28;1458;-57
2023/04/01 06:42:18;;;;;;;;;;;;;;;15.36;100.00;98826.47;5010033;28;1093;-58
2023/04/01 06:44:57;;;;;;;;;;;;;;;16.58;100.00;98823.38;4980063;28;1883;-57
2023/04/01 06:47:46;;;;;;;;;;;;;;;17.39;100.00;98822.84;5009557;28;930;-57
2023/04/01 06:50:21;;;;;;;;;;;;;;;16.72;100.00;98815.13;4982600;28;1195;-58
2023/04/01 06:53:11;;;;;;;;;;;;;;;15.27;100.00;98812.53;5009603;28;898;-58
2023/04/01 06:55:42;;;;;;;;;;;;;;;14.34;100.00;98821.56;5009721;28;811;-58
2023/04/01 06:58:32;;;;;;;;;;;;;;;14.18;100.00;98820.53;5009509;28;862;-58
2023/04/01 07:01:01;;;;;;;;;;;;;;;14.68;100.00;98816.00;5002059;28;1899;-57
2023/04/01 07:03:48;;;;;;;;;;;;;;;15.69;100.00;98826.75;5009439;28;1894;-58
2023/04/01 07:06:24;;;;;;;;;;;;;;;16.77;100.00;98827.72;4999189;28;1171;-58
2023/04/01 07:08:52;;;;;;;;;;;;;;;16.69;100.00;98824.44;5009479;28;917;-57
2023/04/01 07:11:30;;;;;;;;;;;;;;;16.04;100.00;98815.34;5009196;28;1413;-57
2023/04/01 07:14:23;;;;;;;;;;;;;;;16.29;100.00;98819.09;5025527;28;1361;-58
2023/04/01 07:16:50;;;;;;;;;;;;;;;16.72;100.00;98801.19;5030227;28;1805;-58
2023/04/01 07:19:23;;;;;;;;;;;;;;;17.29;100.00;98799.78;5031171;28;862;-53
2023/04/01 07:21:52;;;;;;;;;;;;;;;17.29;100.00;98805.38;5031221;28;811;-57
2023/04/01 07:24:25;;;;;;;;;;;;;;;18.08;100.00;98805.06;5031250;28;1971;-56
2023/04/01 07:26:56;;;;;;;;;;;;;;;19.07;100.00;98807.84;5031105;28;1063;-56
2023/04/01 07:29:22;;;;;;;;;;;;;;;19.47;100.00;98795.19;5031233;28;926;-57
2023/04/01 07:32:08;;;;;;;;;;;;;;;19.68;100.00;98793.94;5030960;28;890;-56
2023/04/01 07:34:36;;;;;;;;;;;;;;;19.21;98.44;98769.88;5030931;28;914;-57
2023/04/01 07:37:14;;;;;;;;;;;;;;;19.15;100.00;98767.75;5029639;28;1291;-56
2023/04/01 07:39:39;;;;;;;;;;;;;;;19.90;98.19;98759.06;5031004;28;854;-55
2023/04/01 07:42:21;;;;;;;;;;;;;;;19.77;100.00;98756.63;5031142;28;854;-57
2023/04/01 07:44:57;;;;;;;;;;;;;;;20.33;95.71;98753.66;5034839;28;1889;-54
2023/04/01 07:47:34;;;;;;;;;;;;;;;20.73;90.81;98758.41;5034338;28;885;-54
2023/04/01 07:50:01;;;;;;;;;;;;;;;21.01;93.00;98755.81;5034513;28;906;-54
2023/04/01 07:52:44;;;;;;;;;;;;;;;21.30;92.16;98756.78;5033243;28;1217;-54
2023/04/01 07:55:16;;;;;;;;;;;;;;;21.46;86.99;98749.72;5034359;28;847;-55
2023/04/01 07:57:43;;;;;;;;;;;;;;;19.90;89.03;98745.06;5034272;28;888;-56
2023/04/01 08:00:15;;;;;;;;;;;;;;;18.70;92.33;98752.25;5034548;28;822;-55
2023/04/01 08:02:51;;;;;;;;;;;;;;;18.35;98.19;98762.09;5034578;28;878;-55
2023/04/01 08:05:21;;;;;;;;;;;;;;;18.46;94.66;98753.13;5032845;28;915;-55
2023/04/01 08:07:56;;;;;;;;;;;;;;;19.23;99.61;98753.34;5034113;28;929;-55
2023/04/01 08:10:22;;;;;;;;;;;;;;;19.58;88.49;98742.84;5043932;28;1388;-56
2023/04/01 08:13:11;;;;;;;;;;;;;;;20.01;94.04;98736.75;5054000;28;946;-55
2023/04/01 08:16:01;;;;;;;;;;;;;;;20.17;90.70;98730.56;5054332;28;759;-55
2023/04/01 08:18:45;;;;;;;;;;;;;;;19.46;91.27;98729.19;5054309;28;811;-54
2023/04/01 08:21:32;;;;;;;;;;;;;;;19.28;93.13;98731.00;5053835;28;839;-54
2023/04/01 08:24:05;;;;;;;;;;;;;;;18.53;95.47;98732.38;5053511;28;2176;-54
2023/04/01 08:26:45;;;;;;;;;;;;;;;18.73;96.04;98717.69;5053717;28;930;-54
2023/04/01 08:29:21;;;;;;;;;;;;;;;18.62;96.60;98715.47;5053636;28;1010;-55
2023/04/01 08:31:55;;;;;;;;;;;;;;;18.52;96.88;98717.63;5053611;28;944;-55
2023/04/01 08:34:26;;;;;;;;;;;;;;;18.17;99.30;98707.09;5053530;28;964;-55
2023/04/01 08:36:57;;;;;;;;;;;;;;;18.08;100.00;98707.19;5053541;28;846;-56
2023/04/01 08:39:50;;;;;;;;;;;;;;;18.52;100.00;98702.84;5053503;28;1185;-58
2023/04/01 08:42:25;;;;;;;;;;;;;;;18.93;98.73;98698.19;5051800;28;1653;-56
2023/04/01 08:45:07;;;;;;;;;;;;;;;18.48;98.30;98700.25;5052037;28;1945;-56
2023/04/01 08:47:46;;;;;;;;;;;;;;;17.93;100.00;98689.63;5053159;28;842;-55
2023/04/01 08:50:31;;;;;;;;;;;;;;;17.57;100.00;98682.31;5051917;28;1462;-55
2023/04/01 08:53:04;;;;;;;;;;;;;;;17.72;100.00;98680.31;5053014;28;794;-55
2023/04/01 08:55:36;;;;;;;;;;;;;;;18.12;100.00;98673.44;5053151;28;826;-56
2023/04/01 08:58:21;;;;;;;;;;;;;;;18.55;100.00;98671.88;5053173;28;1003;-56
2023/04/01 09:00:57;;;;;;;;;;;;;;;18.29;95.11;98665.34;5053684;28;811;-56
2023/04/01 09:03:34;;;;;;;;;;;;;;;18.08;98.52;98679.22;5052900;28;1943;-54
2023/04/01 09:06:06;;;;;;;;;;;;;;;18.49;97.80;98671.00;5052805;28;838;-56
2023/04/01 09:08:32;;;;;;;;;;;;;;;18.93;94.30;98667.38;5053049;28;918;-54
2023/04/01 09:11:04;;;;;;;;;;;;;;;19.25;91.43;98661.97;5052795;28;1248;-55
2023/04/01 09:13:30;;;;;;;;;;;;;;;19.41;90.22;98655.00;5052835;28;949;-55
2023/04/01 09:16:00;;;;;;;;;;;;;;;19.61;90.97;98657.03;5052855;28;826;-55
2023/04/01 09:18:41;;;;;;;;;;;;;;;19.92;93.76;98650.00;5052891;28;811;-56
2023/04/01 09:21:07;;;;;;;;;;;;;;;20.58;88.35;98640.63;5053028;28;875;-56
2023/04/01 09:23:34;;;;;;;;;;;;;;;20.83;87.46;98631.88;5052946;28;1906;-56
2023/04/01 09:26:16;;;;;;;;;;;;;;;20.50;86.68;98621.91;5052684;28;949;-56
2023/04/01 09:28:49;;;;;;;;;;;;;;;20.33;85.98;98616.19;5052727;28;849;-56
2023/04/01 09:31:22;;;;;;;;;;;;;;;20.53;86.04;98610.47;5052890;28;840;-57
2023/04/01 09:34:01;;;;;;;;;;;;;;;20.23;85.84;98597.97;5052901;28;879;-56
2023/04/01 09:36:31;;;;;;;;;;;;;;;20.34;85.55;98610.06;5052402;28;1020;-54
2023/04/01 09:38:59;;;;;;;;;;;;;;;20.04;85.63;98608.81;5052463;28;919;-55
2023/04/01 10:10:10;;;;;;;;;;;;;;;19.84;81.14;98576.75;5635391;22;1490;-54
2023/04/01 10:12:55;;;;;;;;;;;;;;;19.85;81.97;98569.13;5051776;28;894;-55
2023/04/01 10:15:31;;;;;;;;;;;;;;;20.54;79.37;98558.66;5051901;28;833;-54
2023/04/01 10:18:10;;;;;;;;;;;;;;;20.52;77.52;98558.41;5051644;28;1056;-55
2023/04/01 10:20:52;;;;;;;;;;;;;;;20.22;76.32;98546.72;5051778;28;805;-54
2023/04/01 10:23:21;;;;;;;;;;;;;;;20.55;76.86;98539.81;5051598;28;1969;-54
2023/04/01 10:26:08;;;;;;;;;;;;;;;20.83;75.68;98525.19;5051717;28;1033;-53
2023/04/01 10:28:44;;;;;;;;;;;;;;;21.15;76.00;98534.22;5051618;28;825;-54
2023/04/01 10:31:30;;;;;;;;;;;;;;;21.18;75.03;98519.91;5051567;28;897;-55
2023/04/01 10:34:05;;;;;;;;;;;;;;;21.16;73.01;98530.13;5051503;28;861;-53
2023/04/01 10:36:35;;;;;;;;;;;;;;;20.63;73.17;98528.88;5051765;28;921;-52
2023/04/01 10:39:21;;;;;;;;;;;;;;;20.09;74.67;98535.94;5051755;28;810;-52
2023/04/01 10:42:05;;;;;;;;;;;;;;;19.75;76.60;98530.03;5051531;28;829;-54
2023/04/01 10:44:50;;;;;;;;;;;;;;;20.34;75.86;98527.94;5050165;28;1918;-53
2023/04/01 10:47:26;;;;;;;;;;;;;;;20.36;73.50;98517.00;5051398;28;945;-54
2023/04/01 10:50:11;;;;;;;;;;;;;;;20.08;74.58;98513.97;5051402;28;912;-52
2023/04/01 10:52:46;;;;;;;;;;;;;;;20.37;74.25;98513.66;5051434;28;869;-54
2023/04/01 10:55:13;;;;;;;;;;;;;;;20.48;73.91;98507.34;5051754;28;838;-54
2023/04/01 10:58:08;;;;;;;;;;;;;;;20.64;74.29;98491.16;5051534;28;849;-53
2023/04/01 11:00:53;;;;;;;;;;;;;;;20.68;72.77;98480.44;5051595;28;802;-55
2023/04/01 11:03:38;;;;;;;;;;;;;;;20.51;73.43;98480.34;5051141;28;1878;-55
2023/04/01 11:06:34;;;;;;;;;;;;;;;20.33;74.49;98470.28;5051442;28;814;-52
2023/04/01 11:09:00;;;;;;;;;;;;;;;;;;5051244;28;1084;-55
2023/04/01 11:11:27;;;;;;;;;;;;;;;20.47;75.21;98457.34;5050974;28;1421;-55
2023/04/01 11:14:12;;;;;;;;;;;;;;;20.55;75.75;98455.59;5051225;28;830;-55
2023/04/01 11:17:02;;;;;;;;;;;;;;;20.38;72.70;98452.72;5052422;28;873;-55
2023/04/01 11:19:28;;;;;;;;;;;;;;;20.10;73.48;98449.75;5052099;28;1538;-56
2023/04/01 11:22:13;;;;;;;;;;;;;;;19.74;75.98;98450.03;5055007;28;854;-53
2023/04/01 11:24:59;;;;;;;;;;;;;;;19.57;77.87;98438.66;5054914;28;1910;-53
2023/04/01 11:27:44;;;;;;;;;;;;;;;19.56;78.53;98439.16;5055062;28;821;-53
2023/04/01 11:30:26;;;;;;;;;;;;;;;19.52;78.35;98445.00;5054875;28;842;-56
2023/04/01 11:33:01;;;;;;;;;;;;;;;19.46;79.29;98435.78;5054771;28;890;-54
2023/04/01 11:35:47;;;;;;;;;;;;;;;19.49;78.86;98425.59;5054999;28;861;-54
2023/04/01 11:38:13;;;;;;;;;;;;;;;19.53;79.11;98424.09;5054532;28;952;-54
2023/04/01 11:40:40;;;;;;;;;;;;;;;19.54;79.22;98427.66;5054565;28;949;-53
2023/04/01 11:43:12;;;;;;;;;;;;;;;19.82;79.11;98410.31;5054709;28;1890;-53
2023/04/01 11:45:47;;;;;;;;;;;;;;;20.08;76.95;98418.63;5054609;28;858;-55
2023/04/01 11:48:35;;;;;;;;;;;;;;;20.16;75.06;98419.69;5054535;28;878;-55
2023/04/01 11:51:26;;;;;;;;;;;;;;;20.16;74.92;98409.25;5054528;28;857;-54
2023/04/01 11:53:55;;;;;;;;;;;;;;;20.46;75.08;98414.50;5054409;28;865;-54
2023/04/01 11:56:21;;;;;;;;;;;;;;;20.71;74.45;98409.25;5054393;28;818;-54
2023/04/01 11:58:48;;;;;;;;;;;;;;;20.99;73.70;98407.28;5054311;28;846;-55
2023/04/01 12:01:25;;;;;;;;;;;;;;;21.29;72.04;98397.59;5054248;28;909;-53
2023/04/01 12:04:00;;;;;;;;;;;;;;;21.29;71.71;98398.34;5054193;28;1894;-55
2023/04/01 12:06:42;;;;;;;;;;;;;;;20.82;73.76;98395.22;5054215;28;810;-55
2023/04/01 12:09:16;;;;;;;;;;;;;;;20.47;73.80;98399.19;5054296;28;1045;-55
2023/04/01 12:11:52;;;;;;;;;;;;;;;20.43;73.35;98387.44;5069484;28;1428;-55
2023/04/01 12:14:19;;;;;;;;;;;;;;;20.48;73.24;98386.69;5054367;28;850;-54
2023/04/01 12:16:51;;;;;;;;;;;;;;;20.21;73.85;98382.50;5054399;28;880;-55
2023/04/01 12:19:30;;;;;;;;;;;;;;;19.91;76.76;98376.50;5053947;28;818;-55
2023/04/01 12:22:14;;;;;;;;;;;;;;;19.68;79.65;98381.91;5054140;28;872;-54
2023/04/01 12:24:49;;;;;;;;;;;;;;;19.61;79.31;98371.19;5052421;28;1973;-56
2023/04/01 12:27:33;;;;;;;;;;;;;;;19.60;79.00;98375.25;5054135;28;1146;-55
2023/04/01 12:30:14;;;;;;;;;;;;;;;19.46;78.52;98384.56;5053356;28;810;-55
2023/04/01 12:32:41;;;;;;;;;;;;;;;19.46;77.49;98370.53;5053660;28;905;-54
2023/04/01 12:35:07;;;;;;;;;;;;;;;20.10;75.56;98369.19;5053685;28;837;-55
2023/04/01 12:37:56;;;;;;;;;;;;;;;21.65;70.47;98369.75;5053439;28;906;-55
2023/04/01 12:40:47;;;;;;;;;;;;;;;23.45;65.35;98351.97;5053631;28;810;-55
2023/04/01 12:43:32;;;;;;;;;;;;;;;23.65;63.70;98351.50;5052213;28;1965;-56
2023/04/01 12:46:32;;;;;;;;;;;;;;;23.17;63.75;98346.56;5053474;28;925;-56
2023/04/01 12:48:58;;;;;;;;;;;;;;;23.70;64.14;98341.47;5041772;28;1410;-56
2023/04/01 12:51:27;;;;;;;;;;;;;;;23.33;63.64;98333.63;5053577;28;886;-56
2023/04/01 12:54:08;;;;;;;;;;;;;;;23.78;63.43;98327.56;5053253;28;917;-56
2023/04/01 12:56:38;;;;;;;;;;;;;;;24.68;57.65;98325.69;5053230;28;892;-56
2023/04/01 12:59:07;;;;;;;;;;;;;;;24.92;54.59;98314.28;5053271;28;917;-56
2023/04/01 13:02:00;;;;;;;;;;;;;;;24.88;53.60;98307.41;5053599;28;818;-55
2023/04/01 13:04:41;;;;;;;;;;;;;;;24.44;54.06;98299.81;5052979;28;1948;-57
2023/04/01 13:07:22;;;;;;;;;;;;;;;22.80;57.80;98305.59;5052927;28;834;-57
2023/04/01 13:10:07;;;;;;;;;;;;;;;21.27;62.95;98310.22;5052908;28;1193;-53
2023/04/01 13:12:46;;;;;;;;;;;;;;;20.32;67.79;98314.44;5052954;28;841;-53
2023/04/01 13:15:31;;;;;;;;;;;;;;;19.78;71.18;98324.44;5053672;28;747;-56
2023/04/01 13:18:09;;;;;;;;;;;;;;;19.65;72.24;98312.88;5052720;28;897;-55
2023/04/01 13:20:54;;;;;;;;;;;;;;;19.44;73.41;98294.63;5051499;28;1603;-56
2023/04/01 13:23:42;;;;;;;;;;;;;;;19.44;73.69;98308.63;5052633;28;1938;-56
2023/04/01 13:26:15;;;;;;;;;;;;;;;19.53;73.14;98300.06;5052688;28;818;-56
2023/04/01 13:28:47;;;;;;;;;;;;;;;19.73;72.67;98291.50;5052675;28;841;-56
2023/04/01 13:31:25;;;;;;;;;;;;;;;19.84;71.84;98306.84;5052792;28;897;-56
2023/04/01 13:34:10;;;;;;;;;;;;;;;19.84;71.14;98309.66;5052495;28;886;-56
2023/04/01 13:36:42;;;;;;;;;;;;;;;19.76;72.25;98312.94;5052354;28;818;-56
2023/04/01 13:39:27;;;;;;;;;;;;;;;19.57;71.19;98315.34;5052213;28;830;-57
2023/04/01 13:41:53;;;;;;;;;;;;;;;19.42;71.75;98297.94;5051869;28;933;-56
2023/04/01 13:44:31;;;;;;;;;;;;;;;19.57;72.18;98318.16;5052252;28;1890;-57
2023/04/01 13:47:12;;;;;;;;;;;;;;;19.65;71.47;98296.06;5052253;28;801;-57
2023/04/01 13:49:48;;;;;;;;;;;;;;;19.94;70.38;98299.78;5052360;28;897;-57
2023/04/01 13:52:47;;;;;;;;;;;;;;;20.17;68.31;98297.81;5052409;28;894;-57
2023/04/01 13:55:35;;;;;;;;;;;;;;;19.91;69.71;98304.34;5040055;28;1210;-56
2023/04/01 13:58:12;;;;;;;;;;;;;;;19.89;69.53;98300.53;5051956;28;901;-57
2023/04/01 14:00:44;;;;;;;;;;;;;;;19.74;70.95;98298.66;5050762;28;1014;-56
2023/04/01 14:03:19;;;;;;;;;;;;;;;19.59;71.19;98304.41;5052149;28;1878;-56
2023/04/01 14:05:46;;;;;;;;;;;;;;;19.42;71.98;98305.59;5051938;28;814;-55
2023/04/01 14:08:12;;;;;;;;;;;;;;;19.42;71.68;98292.34;5051804;28;949;-56
2023/04/01 14:10:39;;;;;;;;;;;;;;;20.28;70.08;98297.09;5051841;28;1260;-57
2023/04/01 14:13:08;;;;;;;;;;;;;;;21.21;66.13;98282.16;5051825;28;906;-57
2023/04/01 14:15:47;;;;;;;;;;;;;;;21.17;66.05;98278.84;5051847;28;949;-56